createdAt,value
2018-05-27T00:00:52.343Z,5.60
2018-05-27T00:03:22.433Z,5.30
2018-05-27T00:05:52.547Z,5.40
2018-05-27T00:08:22.643Z,5.55
2018-05-27T00:10:53.093Z,5.85
2018-05-27T00:13:23.326Z,5.57
2018-05-27T00:15:53.879Z,5.45
2018-05-27T00:18:23.977Z,5.72
2018-05-27T00:20:54.069Z,5.45
2018-05-27T00:23:24.723Z,4.97
2018-05-27T00:25:55.051Z,4.95
2018-05-27T00:28:25.527Z,5.25
2018-05-27T00:30:55.705Z,4.85
2018-05-27T00:33:26.083Z,5.18
2018-05-27T00:35:56.175Z,4.55
2018-05-27T00:38:26.265Z,5.68
2018-05-27T00:40:56.434Z,5.75
2018-05-27T00:43:26.522Z,6.10
2018-05-27T00:45:57.016Z,6.10
2018-05-27T00:48:27.117Z,6.57
2018-05-27T00:50:56.876Z,6.15
2018-05-27T00:53:44.438Z,6.03
2018-05-27T00:56:14.535Z,6.20
2018-05-27T00:58:44.909Z,6.55
2018-05-27T01:01:14.967Z,6.18
2018-05-27T01:03:45.449Z,5.97
2018-05-27T01:06:15.577Z,6.30
2018-05-27T01:08:45.663Z,5.68
2018-05-27T01:11:15.818Z,6.20
2018-05-27T01:13:46.293Z,5.87
2018-05-27T01:16:16.779Z,6.30
2018-05-27T01:18:47.191Z,6.12
2018-05-27T01:21:17.292Z,6.07
2018-05-27T01:23:47.402Z,5.12
2018-05-27T01:26:17.489Z,5.70
2018-05-27T01:28:47.727Z,6.15
2018-05-27T01:31:18.235Z,6.10
2018-05-27T01:33:48.325Z,5.75
2018-05-27T01:36:18.405Z,6.50
2018-05-27T01:38:49.109Z,6.07
2018-05-27T01:41:18.949Z,6.20
2018-05-27T01:43:49.445Z,6.03
2018-05-27T01:46:19.507Z,5.57
2018-05-27T01:48:49.595Z,5.75
2018-05-27T01:51:19.696Z,5.47
2018-05-27T01:53:49.798Z,5.85
2018-05-27T01:56:19.902Z,5.53
2018-05-27T01:58:50.096Z,5.53
2018-05-27T02:01:20.578Z,5.28
2018-05-27T02:03:50.652Z,6.70
2018-05-27T02:06:20.760Z,6.55
2018-05-27T02:08:51.257Z,5.70
2018-05-27T02:11:21.365Z,6.15
2018-05-27T02:13:51.452Z,5.90
2018-05-27T02:16:21.544Z,6.18
2018-05-27T02:18:51.696Z,5.95
2018-05-27T02:21:21.806Z,5.80
2018-05-27T02:23:51.988Z,5.97
2018-05-27T02:26:22.122Z,5.80
2018-05-27T02:28:52.640Z,5.62
2018-05-27T02:31:22.746Z,5.65
2018-05-27T02:33:52.708Z,5.62
2018-05-27T02:36:22.800Z,5.53
2018-05-27T02:38:52.906Z,5.22
2018-05-27T02:41:23.310Z,5.50
2018-05-27T02:43:53.394Z,6.03
2018-05-27T02:46:23.516Z,5.53
2018-05-27T02:48:53.630Z,6.03
2018-05-27T02:51:23.702Z,5.43
2018-05-27T02:53:53.986Z,5.20
2018-05-27T02:56:24.296Z,5.30
2018-05-27T02:58:54.384Z,5.70
2018-05-27T03:01:24.489Z,5.57
2018-05-27T03:03:54.566Z,5.12
2018-05-27T03:06:24.115Z,5.67
2018-05-27T03:08:54.207Z,5.43
2018-05-27T03:11:24.166Z,5.60
2018-05-27T03:13:53.736Z,5.63
2018-05-27T03:16:23.674Z,5.50
2018-05-27T03:18:53.202Z,5.10
2018-05-27T03:21:22.717Z,5.20
2018-05-27T03:23:52.270Z,5.00
2018-05-27T03:26:22.196Z,5.63
2018-05-27T03:28:52.776Z,5.40
2018-05-27T03:31:22.314Z,5.00
2018-05-27T03:33:52.271Z,5.07
2018-05-27T03:36:21.824Z,5.63
2018-05-27T03:38:51.569Z,5.00
2018-05-27T03:41:21.364Z,5.03
2018-05-27T03:43:51.334Z,5.43
2018-05-27T03:46:20.880Z,4.87
2018-05-27T03:48:50.833Z,4.60
2018-05-27T03:51:20.365Z,5.03
2018-05-27T03:53:49.928Z,4.77
2018-05-27T03:56:19.902Z,4.80
2018-05-27T03:58:51.496Z,4.40
2018-05-27T04:01:21.428Z,4.63
2018-05-27T04:07:20.877Z,4.83
2018-05-27T04:09:50.393Z,4.20
2018-05-27T04:12:19.979Z,4.70
2018-05-27T04:14:49.515Z,4.73
2018-05-27T04:17:19.033Z,5.00
2018-05-27T04:19:48.576Z,5.03
2018-05-27T04:22:18.494Z,5.30
2018-05-27T04:24:47.722Z,5.10
2018-05-27T04:27:17.232Z,4.70
2018-05-27T04:29:46.812Z,5.03
2018-05-27T04:32:16.336Z,5.70
2018-05-27T04:34:45.854Z,5.70
2018-05-27T04:37:15.375Z,5.53
2018-05-27T04:39:45.027Z,5.70
2018-05-27T04:42:14.944Z,5.23
2018-05-27T04:44:44.450Z,4.90
2018-05-27T04:47:14.386Z,4.60
2018-05-27T04:49:43.912Z,4.73
2018-05-27T04:52:13.439Z,5.10
2018-05-27T04:54:42.958Z,4.60
2018-05-27T04:57:12.486Z,4.57
2018-05-27T04:59:42.412Z,4.70
2018-05-27T05:02:11.944Z,5.03
2018-05-27T05:04:41.470Z,5.28
2018-05-27T05:07:12.277Z,5.25
2018-05-27T05:09:42.346Z,5.60
2018-05-27T05:12:12.428Z,5.80
2018-05-27T05:14:42.928Z,5.37
2018-05-27T05:17:13.022Z,5.62
2018-05-27T05:19:43.117Z,5.25
2018-05-27T05:22:13.318Z,5.55
2018-05-27T05:24:43.920Z,5.40
2018-05-27T05:27:14.021Z,5.60
2018-05-27T05:29:44.128Z,5.55
2018-05-27T05:32:14.970Z,5.60
2018-05-27T05:34:45.055Z,5.37
2018-05-27T05:37:15.942Z,4.75
2018-05-27T05:39:46.027Z,5.28
2018-05-27T05:42:16.107Z,5.95
2018-05-27T05:44:46.186Z,5.22
2018-05-27T05:47:16.275Z,5.45
2018-05-27T05:49:46.756Z,5.10
2018-05-27T05:52:16.842Z,5.20
2018-05-27T05:54:46.923Z,5.00
2018-05-27T05:57:17.015Z,4.85
2018-05-27T05:59:54.532Z,5.30
2018-05-27T06:02:24.619Z,4.55
2018-05-27T06:04:54.680Z,5.32
2018-05-27T06:07:24.763Z,5.32
2018-05-27T06:09:54.843Z,5.03
2018-05-27T06:12:24.931Z,5.00
2018-05-27T06:14:55.201Z,5.85
2018-05-27T06:17:25.287Z,6.25
2018-05-27T06:19:56.061Z,5.82
2018-05-27T06:22:26.160Z,6.20
2018-05-27T06:24:55.917Z,6.78
2018-05-27T06:27:26.049Z,6.45
2018-05-27T06:29:56.212Z,7.03
2018-05-27T06:32:26.359Z,6.50
2018-05-27T06:34:56.491Z,7.45
2018-05-27T06:37:26.582Z,7.78
2018-05-27T06:39:56.863Z,7.45
2018-05-27T06:42:26.978Z,7.82
2018-05-27T06:44:57.101Z,8.52
2018-05-27T06:47:27.603Z,7.75
2018-05-27T06:49:57.759Z,8.75
2018-05-27T06:52:28.246Z,8.48
2018-05-27T06:54:58.316Z,7.00
2018-05-27T06:57:28.457Z,6.85
2018-05-27T06:59:58.569Z,5.80
2018-05-27T07:02:28.681Z,5.15
2018-05-27T07:04:58.854Z,3.53
2018-05-27T07:07:28.777Z,3.35
2018-05-27T07:09:58.845Z,2.80
2018-05-27T07:12:29.333Z,3.30
2018-05-27T07:14:59.439Z,3.72
2018-05-27T07:17:29.539Z,2.97
2018-05-27T07:19:59.624Z,3.55
2018-05-27T07:22:30.091Z,3.45
2018-05-27T07:25:00.163Z,3.25
2018-05-27T07:27:30.719Z,3.50
2018-05-27T07:30:00.814Z,3.33
2018-05-27T07:32:31.303Z,3.00
2018-05-27T07:35:01.400Z,3.15
2018-05-27T07:37:31.516Z,2.90
2018-05-27T07:40:01.626Z,2.80
2018-05-27T07:42:31.922Z,3.20
2018-05-27T07:45:02.685Z,2.75
2018-05-27T07:47:32.763Z,2.87
2018-05-27T07:50:03.275Z,3.62
2018-05-27T07:52:33.358Z,3.03
2018-05-27T07:55:03.431Z,2.65
2018-05-27T07:57:33.595Z,2.85
2018-05-27T08:00:03.354Z,3.10
2018-05-27T08:02:33.479Z,2.62
2018-05-27T08:05:03.654Z,3.00
2018-05-27T08:07:33.733Z,2.85
2018-05-27T08:10:03.609Z,2.65
2018-05-27T08:12:33.682Z,3.12
2018-05-27T08:15:03.553Z,2.97
2018-05-27T08:17:33.849Z,2.72
2018-05-27T08:20:03.760Z,3.00
2018-05-27T08:22:34.071Z,2.67
2018-05-27T08:25:04.226Z,3.47
2018-05-27T08:27:34.875Z,2.87
2018-05-27T08:30:04.318Z,2.70
2018-05-27T08:32:34.797Z,2.90
2018-05-27T08:35:04.667Z,3.08
2018-05-27T08:37:34.952Z,3.08
2018-05-27T08:40:05.028Z,3.00
2018-05-27T08:42:35.115Z,2.60
2018-05-27T08:45:05.785Z,2.78
2018-05-27T08:47:35.894Z,2.50
2018-05-27T08:50:05.655Z,2.95
2018-05-27T08:52:35.767Z,2.58
2018-05-27T08:55:05.520Z,2.50
2018-05-27T08:57:35.615Z,3.30
2018-05-27T09:00:06.123Z,2.90
2018-05-27T09:02:35.897Z,2.80
2018-05-27T09:05:05.412Z,2.87
2018-05-27T09:07:35.541Z,2.65
2018-05-27T09:10:05.325Z,3.03
2018-05-27T09:12:35.798Z,2.60
2018-05-27T09:15:06.158Z,3.22
2018-05-27T09:17:36.427Z,2.90
2018-05-27T09:20:06.513Z,2.75
2018-05-27T09:22:37.004Z,3.00
2018-05-27T09:25:07.174Z,2.67
2018-05-27T09:27:37.425Z,2.80
2018-05-27T09:30:07.511Z,2.30
2018-05-27T09:32:38.001Z,2.80
2018-05-27T09:35:08.117Z,2.72
2018-05-27T09:37:38.217Z,2.80
2018-05-27T09:40:08.293Z,2.75
2018-05-27T09:42:38.782Z,3.08
2018-05-27T09:45:08.979Z,2.83
2018-05-27T09:47:40.359Z,2.80
2018-05-27T09:50:10.439Z,2.90
2018-05-27T09:52:40.559Z,2.47
2018-05-27T09:55:10.719Z,2.40
2018-05-27T09:57:40.797Z,2.53
2018-05-27T10:00:10.561Z,2.72
2018-05-27T10:02:41.055Z,2.87
2018-05-27T10:05:11.173Z,2.40
2018-05-27T10:07:41.259Z,2.60
2018-05-27T10:10:11.365Z,2.28
2018-05-27T10:12:42.092Z,2.97
2018-05-27T10:15:12.333Z,3.10
2018-05-27T10:17:42.460Z,2.78
2018-05-27T10:20:12.543Z,2.92
2018-05-27T10:22:42.643Z,2.30
2018-05-27T10:25:12.738Z,2.37
2018-05-27T10:27:42.838Z,2.80
2018-05-27T10:30:12.915Z,2.80
2018-05-27T10:32:43.053Z,2.50
2018-05-27T10:35:12.996Z,2.87
2018-05-27T10:37:43.126Z,2.40
2018-05-27T10:40:12.924Z,2.67
2018-05-27T10:42:43.003Z,2.60
2018-05-27T10:45:13.111Z,2.60
2018-05-27T10:47:43.217Z,3.00
2018-05-27T10:50:13.294Z,2.47
2018-05-27T10:52:43.772Z,2.95
2018-05-27T10:55:13.321Z,2.90
2018-05-27T10:57:43.170Z,3.37
2018-05-27T11:00:13.248Z,3.17
2018-05-27T11:02:43.824Z,3.33
2018-05-27T11:05:14.314Z,2.62
2018-05-27T11:07:44.137Z,3.03
2018-05-27T11:10:13.946Z,2.90
2018-05-27T11:12:43.750Z,3.30
2018-05-27T11:15:13.543Z,2.90
2018-05-27T11:17:43.777Z,3.47
2018-05-27T11:20:13.602Z,3.27
2018-05-27T11:22:43.408Z,3.20
2018-05-27T11:25:13.212Z,3.07
2018-05-27T11:27:43.404Z,3.13
2018-05-27T11:30:13.232Z,3.23
2018-05-27T11:32:43.019Z,2.87
2018-05-27T11:35:12.827Z,2.70
2018-05-27T11:37:42.670Z,2.87
2018-05-27T11:40:12.489Z,2.90
2018-05-27T11:42:42.680Z,3.00
2018-05-27T11:45:12.488Z,2.70
2018-05-27T11:47:42.400Z,3.30
2018-05-27T11:50:12.218Z,2.70
2018-05-27T11:52:42.010Z,2.93
2018-05-27T11:55:11.824Z,2.73
2018-05-27T11:57:41.609Z,3.03
2018-05-27T12:00:11.404Z,2.97
2018-05-27T12:02:41.606Z,3.20
2018-05-27T12:05:11.421Z,3.30
2018-05-27T12:07:41.424Z,3.30
2018-05-27T12:10:11.243Z,2.87
2018-05-27T12:12:41.049Z,2.70
2018-05-27T12:15:11.034Z,2.93
2018-05-27T12:17:40.835Z,3.37
2018-05-27T12:20:10.648Z,3.30
2018-05-27T12:22:40.453Z,3.37
2018-05-27T12:25:10.250Z,3.27
2018-05-27T12:27:40.540Z,3.10
2018-05-27T12:30:10.356Z,3.00
2018-05-27T12:32:40.176Z,3.13
2018-05-27T12:35:10.028Z,3.53
2018-05-27T12:37:39.823Z,2.87
2018-05-27T12:40:10.028Z,3.10
2018-05-27T12:42:39.850Z,3.17
2018-05-27T12:45:10.022Z,3.15
2018-05-27T12:47:39.819Z,3.77
2018-05-27T12:50:09.935Z,4.55
2018-05-27T12:52:40.420Z,3.10
2018-05-27T12:55:10.522Z,3.10
2018-05-27T12:57:40.604Z,3.42
2018-05-27T13:00:11.097Z,3.10
2018-05-27T13:02:41.350Z,2.92
2018-05-27T13:05:12.120Z,3.35
2018-05-27T13:07:42.212Z,3.17
2018-05-27T13:10:12.706Z,3.42
2018-05-27T13:12:42.817Z,3.05
2018-05-27T13:15:12.628Z,2.70
2018-05-27T13:17:42.728Z,3.08
2018-05-27T13:20:12.532Z,3.03
2018-05-27T13:22:42.624Z,2.90
2018-05-27T13:25:12.969Z,2.85
2018-05-27T13:27:43.059Z,3.30
2018-05-27T13:30:13.562Z,3.40
2018-05-27T13:32:44.124Z,2.78
2018-05-27T13:35:14.615Z,3.30
2018-05-27T13:37:44.704Z,2.97
2018-05-27T13:40:14.977Z,2.85
2018-05-27T13:42:45.075Z,3.55
2018-05-27T13:45:15.156Z,2.90
2018-05-27T13:47:45.245Z,2.67
2018-05-27T13:50:15.322Z,2.90
2018-05-27T13:52:45.462Z,3.60
2018-05-27T13:55:15.596Z,3.03
2018-05-27T13:57:45.842Z,3.10
2018-05-27T14:00:16.332Z,2.83
2018-05-27T14:02:46.601Z,3.03
2018-05-27T14:05:16.731Z,3.78
2018-05-27T14:07:46.807Z,2.83
2018-05-27T14:10:16.915Z,3.20
2018-05-27T14:12:47.186Z,3.80
2018-05-27T14:15:17.291Z,3.58
2018-05-27T14:17:47.765Z,3.22
2018-05-27T14:20:17.858Z,3.58
2018-05-27T14:22:47.922Z,3.17
2018-05-27T14:25:18.030Z,3.05
2018-05-27T14:27:48.662Z,3.33
2018-05-27T14:30:18.545Z,3.90
2018-05-27T14:32:48.615Z,3.62
2018-05-27T14:35:18.726Z,3.70
2018-05-27T14:37:48.818Z,3.45
2018-05-27T14:40:18.893Z,3.83
2018-05-27T14:42:49.402Z,3.85
2018-05-27T14:45:19.523Z,3.75
2018-05-27T14:47:49.646Z,3.70
2018-05-27T14:50:19.873Z,3.50
2018-05-27T14:52:50.107Z,3.75
2018-05-27T14:55:20.593Z,3.85
2018-05-27T14:57:50.682Z,3.58
2018-05-27T15:00:20.793Z,3.85
2018-05-27T15:02:51.271Z,3.67
2018-05-27T15:05:21.191Z,4.22
2018-05-27T15:07:51.267Z,3.92
2018-05-27T15:10:21.357Z,4.07
2018-05-27T15:12:51.855Z,4.37
2018-05-27T15:15:21.981Z,4.18
2018-05-27T15:17:52.100Z,4.68
2018-05-27T15:20:22.296Z,4.00
2018-05-27T15:22:52.385Z,4.00
2018-05-27T15:25:22.470Z,4.45
2018-05-27T15:27:52.837Z,4.43
2018-05-27T15:30:23.017Z,4.15
2018-05-27T15:32:53.119Z,4.28
2018-05-27T15:35:23.225Z,4.32
2018-05-27T15:37:53.362Z,4.18
2018-05-27T15:40:23.613Z,4.25
2018-05-27T15:42:54.116Z,4.40
2018-05-27T15:45:24.203Z,4.25
2018-05-27T15:47:54.302Z,4.22
2018-05-27T15:50:24.419Z,4.68
2018-05-27T15:52:54.520Z,4.90
2018-05-27T15:55:24.599Z,4.37
2018-05-27T15:57:54.682Z,4.65
2018-05-27T16:00:24.771Z,4.35
2018-05-27T16:02:54.877Z,4.30
2018-05-27T16:05:24.972Z,4.45
2018-05-27T16:07:55.611Z,4.50
2018-05-27T16:10:25.681Z,4.40
2018-05-27T16:12:55.772Z,4.65
2018-05-27T16:15:25.846Z,4.55
2018-05-27T16:17:55.949Z,4.93
2018-05-27T16:20:26.153Z,4.35
2018-05-27T16:22:56.680Z,4.60
2018-05-27T16:25:26.953Z,4.32
2018-05-27T16:27:57.084Z,4.55
2018-05-27T16:30:27.173Z,4.82
2018-05-27T16:32:57.266Z,4.68
2018-05-27T16:35:27.914Z,5.10
2018-05-27T16:37:58.677Z,4.45
2018-05-27T16:40:28.767Z,4.90
2018-05-27T16:42:58.861Z,4.75
2018-05-27T16:45:29.356Z,5.00
2018-05-27T16:47:59.510Z,4.68
2018-05-27T16:50:30.009Z,4.93
2018-05-27T16:53:00.133Z,5.07
2018-05-27T16:55:30.413Z,4.82
2018-05-27T16:58:00.537Z,4.80
2018-05-27T17:00:30.620Z,4.93
2018-05-27T17:03:01.113Z,4.75
2018-05-27T17:05:31.214Z,4.97
2018-05-27T17:08:01.323Z,4.68
2018-05-27T17:10:31.422Z,5.32
2018-05-27T17:13:02.635Z,4.87
2018-05-27T17:15:32.913Z,4.40
2018-05-27T17:18:03.038Z,4.72
2018-05-27T17:20:33.836Z,4.70
2018-05-27T17:23:03.963Z,4.65
2018-05-27T17:25:34.447Z,4.70
2018-05-27T17:28:05.325Z,4.65
2018-05-27T17:30:35.443Z,4.40
2018-05-27T17:33:05.953Z,5.00
2018-05-27T17:35:36.031Z,4.70
2018-05-27T17:38:06.107Z,4.80
2018-05-27T17:40:36.197Z,4.55
2018-05-27T17:43:06.289Z,4.30
2018-05-27T17:45:36.386Z,4.30
2018-05-27T17:48:12.591Z,4.05
2018-05-27T17:50:42.723Z,4.35
2018-05-27T17:53:12.803Z,3.90
2018-05-27T17:55:42.889Z,3.92
2018-05-27T17:58:12.973Z,3.92
2018-05-27T18:00:43.071Z,3.83
2018-05-27T18:03:13.163Z,4.00
2018-05-27T18:05:44.353Z,4.18
2018-05-27T18:08:14.889Z,3.62
2018-05-27T18:10:44.971Z,4.07
2018-05-27T18:13:15.063Z,4.20
2018-05-27T18:15:45.159Z,4.10
2018-05-27T18:18:15.239Z,3.78
2018-05-27T18:20:45.319Z,4.50
2018-05-27T18:23:15.389Z,4.15
2018-05-27T18:25:45.459Z,4.10
2018-05-27T18:28:15.547Z,3.87
2018-05-27T18:30:45.803Z,3.47
2018-05-27T18:33:15.891Z,3.95
2018-05-27T18:35:45.955Z,3.80
2018-05-27T18:38:16.441Z,4.03
2018-05-27T18:40:46.499Z,4.43
2018-05-27T18:43:17.018Z,4.35
2018-05-27T18:45:47.186Z,4.37
2018-05-27T18:48:17.307Z,4.45
2018-05-27T18:50:47.557Z,3.97
2018-05-27T18:53:17.807Z,4.43
2018-05-27T18:55:48.284Z,3.67
2018-05-27T18:58:18.366Z,3.70
2018-05-27T19:00:48.847Z,3.90
2018-05-27T19:03:19.209Z,3.83
2018-05-27T19:05:49.860Z,3.97
2018-05-27T19:08:20.250Z,3.92
2018-05-27T19:10:50.328Z,4.18
2018-05-27T19:13:20.424Z,4.43
2018-05-27T19:15:51.187Z,3.97
2018-05-27T19:18:21.304Z,4.10
2018-05-27T19:20:51.392Z,4.15
2018-05-27T19:23:21.879Z,4.03
2018-05-27T19:25:52.306Z,4.05
2018-05-27T19:28:22.441Z,4.57
2018-05-27T19:30:52.525Z,4.50
2018-05-27T19:33:22.606Z,4.00
2018-05-27T19:35:53.394Z,4.47
2018-05-27T19:38:23.491Z,4.12
2018-05-27T19:40:53.595Z,4.20
2018-05-27T19:43:23.696Z,4.37
2018-05-27T19:45:54.279Z,3.92
2018-05-27T19:48:24.389Z,4.68
2018-05-27T19:50:54.464Z,4.12
2018-05-27T19:53:24.957Z,4.72
2018-05-27T19:55:55.067Z,4.10
2018-05-27T19:58:25.165Z,4.07
2018-05-27T20:00:55.295Z,4.10
2018-05-27T20:03:25.532Z,3.53
2018-05-27T20:05:55.625Z,4.18
2018-05-27T20:08:25.728Z,3.87
2018-05-27T20:10:55.832Z,3.85
2018-05-27T20:13:26.374Z,3.92
2018-05-27T20:15:56.853Z,4.00
2018-05-27T20:18:26.951Z,3.97
2018-05-27T20:20:57.045Z,3.95
2018-05-27T20:23:27.546Z,3.80
2018-05-27T20:25:57.641Z,4.35
2018-05-27T20:28:27.734Z,3.62
2018-05-27T20:30:57.816Z,4.22
2018-05-27T20:33:27.949Z,3.90
2018-05-27T20:35:58.437Z,3.90
2018-05-27T20:38:28.535Z,3.78
2018-05-27T20:40:58.681Z,3.90
2018-05-27T20:43:28.746Z,3.42
2018-05-27T20:45:58.827Z,4.37
2018-05-27T20:48:28.925Z,3.90
2018-05-27T20:50:59.039Z,4.12
2018-05-27T20:53:29.181Z,4.20
2018-05-27T20:55:59.336Z,4.85
2018-05-27T20:58:29.832Z,5.00
2018-05-27T21:00:59.925Z,4.80
2018-05-27T21:03:30.051Z,5.00
2018-05-27T21:06:00.145Z,4.90
2018-05-27T21:08:30.307Z,4.43
2018-05-27T21:11:01.660Z,4.70
2018-05-27T21:13:31.746Z,4.28
2018-05-27T21:16:01.901Z,4.37
2018-05-27T21:18:31.989Z,4.40
2018-05-27T21:21:02.271Z,4.40
2018-05-27T21:23:32.759Z,4.12
2018-05-27T21:26:02.828Z,4.05
2018-05-27T21:28:33.316Z,4.18
2018-05-27T21:31:03.411Z,4.70
2018-05-27T21:33:33.491Z,4.65
2018-05-27T21:36:03.955Z,4.93
2018-05-27T21:38:34.043Z,4.10
2018-05-27T21:41:04.521Z,4.30
2018-05-27T21:43:34.589Z,4.65
2018-05-27T21:46:05.070Z,5.03
2018-05-27T21:48:35.352Z,4.82
2018-05-27T21:51:05.445Z,5.05
2018-05-27T21:53:35.915Z,5.32
2018-05-27T21:56:05.984Z,4.70
2018-05-27T21:58:36.290Z,4.87
2018-05-27T22:01:06.914Z,4.87
2018-05-27T22:03:36.986Z,5.10
2018-05-27T22:06:07.104Z,5.25
2018-05-27T22:08:37.566Z,4.65
2018-05-27T22:11:07.642Z,4.90
2018-05-27T22:13:37.808Z,4.40
2018-05-27T22:16:07.921Z,4.03
2018-05-27T22:18:38.008Z,4.60
2018-05-27T22:21:08.101Z,5.62
2018-05-27T22:23:38.205Z,5.00
2018-05-27T22:26:08.405Z,4.68
2018-05-27T22:28:38.607Z,5.18
2018-05-27T22:31:08.728Z,5.07
2018-05-27T22:33:38.817Z,4.60
2018-05-27T22:36:09.061Z,4.78
2018-05-27T22:38:39.146Z,4.90
2018-05-27T22:41:09.228Z,5.15
2018-05-27T22:43:40.030Z,4.60
2018-05-27T22:46:10.510Z,4.72
2018-05-27T22:48:40.624Z,4.95
2018-05-27T22:51:10.722Z,5.10
2018-05-27T22:53:40.881Z,5.40
2018-05-27T22:56:10.970Z,4.93
2018-05-27T22:58:41.264Z,4.60
2018-05-27T23:01:11.042Z,5.15
2018-05-27T23:03:41.358Z,5.43
2018-05-27T23:06:11.442Z,4.95
2018-05-27T23:08:41.592Z,4.87
2018-05-27T23:11:11.683Z,5.75
2018-05-27T23:13:41.974Z,5.62
2018-05-27T23:16:12.462Z,4.87
2018-05-27T23:18:42.572Z,5.10
2018-05-27T23:21:12.724Z,5.40
2018-05-27T23:23:42.814Z,5.62
2018-05-27T23:26:12.950Z,5.10
2018-05-27T23:28:43.028Z,4.65
2018-05-27T23:31:13.122Z,4.60
2018-05-27T23:33:43.672Z,4.80
2018-05-27T23:36:13.752Z,5.05
2018-05-27T23:38:43.852Z,4.70
2018-05-27T23:41:13.950Z,5.05
2018-05-27T23:43:44.044Z,4.82
2018-05-27T23:46:14.148Z,5.30
2018-05-27T23:48:44.718Z,6.30
2018-05-27T23:51:14.808Z,5.72
2018-05-27T23:53:45.288Z,4.90
2018-05-27T23:56:15.710Z,5.47
2018-05-27T23:58:45.806Z,5.55
